sensor_id;sensor_type;location;lat;lon;timestamp;P1;durP1;ratioP1;P2;durP2;ratioP2
76417;SDS011;65250;47.602;19.002;2022-12-07T00:01:24;16.33;;;7.72;;
76417;SDS011;65250;47.602;19.002;2022-12-07T00:03:54;14.80;;;7.20;;
76417;SDS011;65250;47.602;19.002;2022-12-07T00:06:27;13.60;;;7.22;;
76417;SDS011;65250;47.602;19.002;2022-12-07T00:08:54;12.67;;;7.00;;
76417;SDS011;65250;47.602;19.002;2022-12-07T00:11:22;10.38;;;6.75;;
76417;SDS011;65250;47.602;19.002;2022-12-07T00:13:54;13.13;;;7.60;;
76417;SDS011;65250;47.602;19.002;2022-12-07T00:16:23;14.07;;;7.07;;
76417;SDS011;65250;47.602;19.002;2022-12-07T00:18:53;14.15;;;7.80;;
76417;SDS011;65250;47.602;19.002;2022-12-07T00:21:22;14.33;;;7.37;;
76417;SDS011;65250;47.602;19.002;2022-12-07T00:23:57;16.13;;;8.23;;
76417;SDS011;65250;47.602;19.002;2022-12-07T00:26:27;14.52;;;8.20;;
76417;SDS011;65250;47.602;19.002;2022-12-07T00:28:59;15.27;;;8.07;;
76417;SDS011;65250;47.602;19.002;2022-12-07T00:31:29;14.02;;;8.13;;
76417;SDS011;65250;47.602;19.002;2022-12-07T00:33:58;13.90;;;8.07;;
76417;SDS011;65250;47.602;19.002;2022-12-07T00:36:26;12.70;;;7.75;;
76417;SDS011;65250;47.602;19.002;2022-12-07T00:38:54;13.20;;;6.90;;
76417;SDS011;65250;47.602;19.002;2022-12-07T00:41:22;12.23;;;6.72;;
76417;SDS011;65250;47.602;19.002;2022-12-07T00:43:51;11.75;;;6.70;;
76417;SDS011;65250;47.602;19.002;2022-12-07T00:46:19;11.55;;;6.85;;
76417;SDS011;65250;47.602;19.002;2022-12-07T00:48:48;12.15;;;7.05;;
76417;SDS011;65250;47.602;19.002;2022-12-07T00:51:17;10.07;;;6.40;;
76417;SDS011;65250;47.602;19.002;2022-12-07T00:53:45;11.30;;;6.88;;
76417;SDS011;65250;47.602;19.002;2022-12-07T00:56:20;16.40;;;7.78;;
76417;SDS011;65250;47.602;19.002;2022-12-07T00:58:55;14.18;;;7.07;;
76417;SDS011;65250;47.602;19.002;2022-12-07T01:01:28;11.85;;;5.65;;
76417;SDS011;65250;47.602;19.002;2022-12-07T01:03:58;9.82;;;5.65;;
76417;SDS011;65250;47.602;19.002;2022-12-07T01:06:26;10.40;;;6.30;;
76417;SDS011;65250;47.602;19.002;2022-12-07T01:08:53;11.93;;;6.63;;
76417;SDS011;65250;47.602;19.002;2022-12-07T01:11:22;19.13;;;8.20;;
76417;SDS011;65250;47.602;19.002;2022-12-07T01:13:51;16.25;;;7.60;;
76417;SDS011;65250;47.602;19.002;2022-12-07T01:16:20;19.05;;;8.05;;
76417;SDS011;65250;47.602;19.002;2022-12-07T01:18:52;15.88;;;7.70;;
76417;SDS011;65250;47.602;19.002;2022-12-07T01:21:23;15.13;;;7.72;;
76417;SDS011;65250;47.602;19.002;2022-12-07T01:23:52;12.77;;;7.53;;
76417;SDS011;65250;47.602;19.002;2022-12-07T01:26:21;13.57;;;7.47;;
76417;SDS011;65250;47.602;19.002;2022-12-07T01:28:50;14.05;;;7.35;;
76417;SDS011;65250;47.602;19.002;2022-12-07T01:31:19;20.58;;;8.77;;
76417;SDS011;65250;47.602;19.002;2022-12-07T01:33:49;15.48;;;7.57;;
76417;SDS011;65250;47.602;19.002;2022-12-07T01:38:56;14.77;;;6.88;;
76417;SDS011;65250;47.602;19.002;2022-12-07T01:41:26;11.25;;;6.75;;
76417;SDS011;65250;47.602;19.002;2022-12-07T01:46:59;9.70;;;5.65;;
76417;SDS011;65250;47.602;19.002;2022-12-07T01:54:42;16.95;;;8.93;;
76417;SDS011;65250;47.602;19.002;2022-12-07T01:57:11;16.15;;;8.90;;
76417;SDS011;65250;47.602;19.002;2022-12-07T01:59:39;15.25;;;8.23;;
76417;SDS011;65250;47.602;19.002;2022-12-07T02:02:07;15.23;;;8.33;;
76417;SDS011;65250;47.602;19.002;2022-12-07T02:04:37;14.45;;;8.80;;
76417;SDS011;65250;47.602;19.002;2022-12-07T02:07:05;14.50;;;7.47;;
76417;SDS011;65250;47.602;19.002;2022-12-07T02:09:33;11.85;;;6.78;;
76417;SDS011;65250;47.602;19.002;2022-12-07T02:12:00;13.88;;;7.05;;
76417;SDS011;65250;47.602;19.002;2022-12-07T02:14:28;12.83;;;6.50;;
76417;SDS011;65250;47.602;19.002;2022-12-07T02:16:59;13.95;;;6.97;;
76417;SDS011;65250;47.602;19.002;2022-12-07T02:22:36;14.73;;;7.72;;
76417;SDS011;65250;47.602;19.002;2022-12-07T02:25:30;15.15;;;7.47;;
76417;SDS011;65250;47.602;19.002;2022-12-07T02:29:08;10.87;;;6.37;;
76417;SDS011;65250;47.602;19.002;2022-12-07T02:31:18;13.60;;;6.88;;
76417;SDS011;65250;47.602;19.002;2022-12-07T02:33:58;13.27;;;7.03;;
76417;SDS011;65250;47.602;19.002;2022-12-07T02:36:32;13.63;;;6.55;;
76417;SDS011;65250;47.602;19.002;2022-12-07T02:41:52;10.83;;;6.30;;
76417;SDS011;65250;47.602;19.002;2022-12-07T02:44:24;11.77;;;6.88;;
76417;SDS011;65250;47.602;19.002;2022-12-07T02:46:54;12.18;;;6.70;;
76417;SDS011;65250;47.602;19.002;2022-12-07T02:49:25;8.77;;;5.13;;
76417;SDS011;65250;47.602;19.002;2022-12-07T02:51:54;9.75;;;5.68;;
76417;SDS011;65250;47.602;19.002;2022-12-07T02:54:22;11.60;;;6.07;;
76417;SDS011;65250;47.602;19.002;2022-12-07T02:56:52;11.75;;;5.82;;
76417;SDS011;65250;47.602;19.002;2022-12-07T02:59:29;9.10;;;5.97;;
76417;SDS011;65250;47.602;19.002;2022-12-07T03:10:40;9.93;;;5.90;;
76417;SDS011;65250;47.602;19.002;2022-12-07T03:16:09;10.23;;;5.55;;
76417;SDS011;65250;47.602;19.002;2022-12-07T03:18:44;10.68;;;5.55;;
76417;SDS011;65250;47.602;19.002;2022-12-07T03:21:15;10.47;;;5.90;;
76417;SDS011;65250;47.602;19.002;2022-12-07T03:23:45;9.98;;;5.43;;
76417;SDS011;65250;47.602;19.002;2022-12-07T03:26:16;10.80;;;5.93;;
76417;SDS011;65250;47.602;19.002;2022-12-07T03:28:46;11.15;;;5.60;;
76417;SDS011;65250;47.602;19.002;2022-12-07T03:31:17;7.90;;;5.07;;
76417;SDS011;65250;47.602;19.002;2022-12-07T03:36:22;8.77;;;5.47;;
76417;SDS011;65250;47.602;19.002;2022-12-07T03:38:55;9.73;;;5.22;;
76417;SDS011;65250;47.602;19.002;2022-12-07T03:41:28;12.68;;;5.50;;
76417;SDS011;65250;47.602;19.002;2022-12-07T03:43:58;9.75;;;5.45;;
76417;SDS011;65250;47.602;19.002;2022-12-07T03:49:22;9.63;;;5.60;;
76417;SDS011;65250;47.602;19.002;2022-12-07T03:54:40;8.52;;;5.15;;
76417;SDS011;65250;47.602;19.002;2022-12-07T03:57:11;10.20;;;5.38;;
76417;SDS011;65250;47.602;19.002;2022-12-07T03:59:40;10.73;;;6.10;;
76417;SDS011;65250;47.602;19.002;2022-12-07T04:02:08;10.65;;;6.53;;
76417;SDS011;65250;47.602;19.002;2022-12-07T04:04:38;9.98;;;6.53;;
76417;SDS011;65250;47.602;19.002;2022-12-07T04:07:06;10.88;;;5.90;;
76417;SDS011;65250;47.602;19.002;2022-12-07T04:09:33;13.25;;;7.07;;
76417;SDS011;65250;47.602;19.002;2022-12-07T04:12:01;12.33;;;5.67;;
76417;SDS011;65250;47.602;19.002;2022-12-07T04:14:28;8.70;;;5.60;;
76417;SDS011;65250;47.602;19.002;2022-12-07T04:16:56;10.10;;;4.90;;
76417;SDS011;65250;47.602;19.002;2022-12-07T04:19:27;7.60;;;4.82;;
76417;SDS011;65250;47.602;19.002;2022-12-07T04:21:57;9.70;;;5.45;;
76417;SDS011;65250;47.602;19.002;2022-12-07T04:24:25;8.40;;;5.17;;
76417;SDS011;65250;47.602;19.002;2022-12-07T04:26:53;8.57;;;4.95;;
76417;SDS011;65250;47.602;19.002;2022-12-07T04:29:21;7.07;;;4.32;;
76417;SDS011;65250;47.602;19.002;2022-12-07T04:31:49;8.13;;;4.97;;
76417;SDS011;65250;47.602;19.002;2022-12-07T04:34:16;8.93;;;5.55;;
76417;SDS011;65250;47.602;19.002;2022-12-07T04:36:44;7.70;;;4.67;;
76417;SDS011;65250;47.602;19.002;2022-12-07T04:41:46;7.97;;;4.15;;
76417;SDS011;65250;47.602;19.002;2022-12-07T04:44:14;6.43;;;4.20;;
76417;SDS011;65250;47.602;19.002;2022-12-07T04:46:42;5.80;;;3.53;;
76417;SDS011;65250;47.602;19.002;2022-12-07T04:49:10;6.87;;;3.83;;
76417;SDS011;65250;47.602;19.002;2022-12-07T04:51:38;5.68;;;3.70;;
76417;SDS011;65250;47.602;19.002;2022-12-07T04:54:05;6.35;;;3.80;;
76417;SDS011;65250;47.602;19.002;2022-12-07T04:56:33;8.35;;;3.88;;
76417;SDS011;65250;47.602;19.002;2022-12-07T04:59:02;6.90;;;4.35;;
76417;SDS011;65250;47.602;19.002;2022-12-07T05:01:30;6.57;;;3.90;;
76417;SDS011;65250;47.602;19.002;2022-12-07T05:03:57;7.25;;;4.75;;
76417;SDS011;65250;47.602;19.002;2022-12-07T05:06:25;7.38;;;4.53;;
76417;SDS011;65250;47.602;19.002;2022-12-07T05:08:52;9.93;;;4.93;;
76417;SDS011;65250;47.602;19.002;2022-12-07T05:11:20;8.43;;;4.40;;
76417;SDS011;65250;47.602;19.002;2022-12-07T05:14:07;8.30;;;4.90;;
76417;SDS011;65250;47.602;19.002;2022-12-07T05:16:35;6.75;;;3.95;;
76417;SDS011;65250;47.602;19.002;2022-12-07T05:19:03;6.72;;;4.10;;
76417;SDS011;65250;47.602;19.002;2022-12-07T05:21:31;7.35;;;4.38;;
76417;SDS011;65250;47.602;19.002;2022-12-07T05:23:58;8.05;;;4.55;;
76417;SDS011;65250;47.602;19.002;2022-12-07T05:26:26;9.37;;;5.70;;
76417;SDS011;65250;47.602;19.002;2022-12-07T05:28:55;10.82;;;6.30;;
76417;SDS011;65250;47.602;19.002;2022-12-07T05:31:23;9.32;;;5.93;;
76417;SDS011;65250;47.602;19.002;2022-12-07T05:33:51;8.40;;;5.68;;
76417;SDS011;65250;47.602;19.002;2022-12-07T05:36:19;8.02;;;4.90;;
76417;SDS011;65250;47.602;19.002;2022-12-07T05:38:46;7.93;;;4.77;;
76417;SDS011;65250;47.602;19.002;2022-12-07T05:41:14;9.15;;;4.78;;
76417;SDS011;65250;47.602;19.002;2022-12-07T05:44:02;7.40;;;4.65;;
76417;SDS011;65250;47.602;19.002;2022-12-07T05:46:29;7.43;;;4.57;;
76417;SDS011;65250;47.602;19.002;2022-12-07T05:48:57;8.65;;;4.40;;
76417;SDS011;65250;47.602;19.002;2022-12-07T05:51:24;7.30;;;4.40;;
76417;SDS011;65250;47.602;19.002;2022-12-07T05:53:51;7.47;;;4.35;;
76417;SDS011;65250;47.602;19.002;2022-12-07T05:56:19;9.13;;;4.72;;
76417;SDS011;65250;47.602;19.002;2022-12-07T05:58:46;7.60;;;4.40;;
76417;SDS011;65250;47.602;19.002;2022-12-07T06:01:32;9.13;;;4.47;;
76417;SDS011;65250;47.602;19.002;2022-12-07T06:04:00;7.07;;;4.50;;
76417;SDS011;65250;47.602;19.002;2022-12-07T06:06:27;7.53;;;4.90;;
76417;SDS011;65250;47.602;19.002;2022-12-07T06:08:55;9.52;;;5.15;;
76417;SDS011;65250;47.602;19.002;2022-12-07T06:11:23;9.63;;;4.85;;
76417;SDS011;65250;47.602;19.002;2022-12-07T06:14:08;8.45;;;5.25;;
76417;SDS011;65250;47.602;19.002;2022-12-07T06:16:36;9.30;;;5.27;;
76417;SDS011;65250;47.602;19.002;2022-12-07T06:19:04;8.05;;;4.90;;
76417;SDS011;65250;47.602;19.002;2022-12-07T06:21:32;10.07;;;5.40;;
76417;SDS011;65250;47.602;19.002;2022-12-07T06:23:59;8.70;;;5.43;;
76417;SDS011;65250;47.602;19.002;2022-12-07T06:26:27;9.93;;;6.13;;
76417;SDS011;65250;47.602;19.002;2022-12-07T06:28:54;7.90;;;5.23;;
76417;SDS011;65250;47.602;19.002;2022-12-07T06:31:21;10.30;;;5.07;;
76417;SDS011;65250;47.602;19.002;2022-12-07T06:33:48;8.60;;;5.25;;
76417;SDS011;65250;47.602;19.002;2022-12-07T06:36:15;10.90;;;6.80;;
76417;SDS011;65250;47.602;19.002;2022-12-07T06:38:48;10.52;;;5.82;;
76417;SDS011;65250;47.602;19.002;2022-12-07T06:41:15;12.13;;;6.83;;
76417;SDS011;65250;47.602;19.002;2022-12-07T06:43:42;10.70;;;6.65;;
76417;SDS011;65250;47.602;19.002;2022-12-07T06:46:09;11.63;;;6.75;;
76417;SDS011;65250;47.602;19.002;2022-12-07T06:48:36;12.93;;;6.70;;
76417;SDS011;65250;47.602;19.002;2022-12-07T06:51:06;11.63;;;6.78;;
76417;SDS011;65250;47.602;19.002;2022-12-07T06:53:33;13.37;;;7.80;;
76417;SDS011;65250;47.602;19.002;2022-12-07T06:56:01;10.55;;;7.00;;
76417;SDS011;65250;47.602;19.002;2022-12-07T06:58:28;13.80;;;7.80;;
76417;SDS011;65250;47.602;19.002;2022-12-07T07:00:54;14.55;;;8.77;;
76417;SDS011;65250;47.602;19.002;2022-12-07T07:03:22;14.95;;;8.43;;
76417;SDS011;65250;47.602;19.002;2022-12-07T07:05:49;13.43;;;8.00;;
76417;SDS011;65250;47.602;19.002;2022-12-07T07:08:16;14.20;;;9.07;;
76417;SDS011;65250;47.602;19.002;2022-12-07T07:10:48;12.45;;;8.45;;
76417;SDS011;65250;47.602;19.002;2022-12-07T07:13:15;14.48;;;8.32;;
76417;SDS011;65250;47.602;19.002;2022-12-07T07:15:42;16.92;;;9.80;;
76417;SDS011;65250;47.602;19.002;2022-12-07T07:18:10;15.00;;;9.43;;
76417;SDS011;65250;47.602;19.002;2022-12-07T07:20:37;16.92;;;10.32;;
76417;SDS011;65250;47.602;19.002;2022-12-07T07:23:04;14.48;;;9.48;;
76417;SDS011;65250;47.602;19.002;2022-12-07T07:25:31;17.85;;;10.60;;
76417;SDS011;65250;47.602;19.002;2022-12-07T07:27:59;17.17;;;10.60;;
76417;SDS011;65250;47.602;19.002;2022-12-07T07:30:27;15.70;;;9.80;;
76417;SDS011;65250;47.602;19.002;2022-12-07T07:32:57;16.45;;;9.82;;
76417;SDS011;65250;47.602;19.002;2022-12-07T07:35:26;17.00;;;9.57;;
76417;SDS011;65250;47.602;19.002;2022-12-07T07:37:56;16.80;;;10.02;;
76417;SDS011;65250;47.602;19.002;2022-12-07T07:40:24;15.98;;;9.73;;
76417;SDS011;65250;47.602;19.002;2022-12-07T07:42:53;16.80;;;9.00;;
76417;SDS011;65250;47.602;19.002;2022-12-07T07:45:22;17.27;;;10.05;;
76417;SDS011;65250;47.602;19.002;2022-12-07T07:47:50;15.65;;;8.75;;
76417;SDS011;65250;47.602;19.002;2022-12-07T07:50:17;17.00;;;8.77;;
76417;SDS011;65250;47.602;19.002;2022-12-07T07:52:44;19.80;;;10.18;;
76417;SDS011;65250;47.602;19.002;2022-12-07T07:55:12;16.17;;;9.87;;
76417;SDS011;65250;47.602;19.002;2022-12-07T07:57:39;16.63;;;9.93;;
76417;SDS011;65250;47.602;19.002;2022-12-07T08:00:08;16.90;;;9.23;;
76417;SDS011;65250;47.602;19.002;2022-12-07T08:02:37;14.68;;;8.32;;
76417;SDS011;65250;47.602;19.002;2022-12-07T08:05:04;16.70;;;9.88;;
76417;SDS011;65250;47.602;19.002;2022-12-07T08:07:32;16.13;;;9.70;;
76417;SDS011;65250;47.602;19.002;2022-12-07T08:09:59;20.02;;;10.35;;
76417;SDS011;65250;47.602;19.002;2022-12-07T08:12:27;17.67;;;9.07;;
76417;SDS011;65250;47.602;19.002;2022-12-07T08:14:55;16.27;;;9.13;;
76417;SDS011;65250;47.602;19.002;2022-12-07T08:17:22;16.05;;;8.68;;
76417;SDS011;65250;47.602;19.002;2022-12-07T08:19:49;20.53;;;10.73;;
76417;SDS011;65250;47.602;19.002;2022-12-07T08:22:16;21.20;;;10.90;;
76417;SDS011;65250;47.602;19.002;2022-12-07T08:24:43;20.17;;;10.40;;
76417;SDS011;65250;47.602;19.002;2022-12-07T08:27:10;24.05;;;11.57;;
76417;SDS011;65250;47.602;19.002;2022-12-07T08:29:37;18.33;;;10.32;;
76417;SDS011;65250;47.602;19.002;2022-12-07T08:32:04;21.27;;;10.97;;
76417;SDS011;65250;47.602;19.002;2022-12-07T08:34:35;18.35;;;10.85;;
76417;SDS011;65250;47.602;19.002;2022-12-07T08:37:03;21.50;;;12.18;;
76417;SDS011;65250;47.602;19.002;2022-12-07T08:39:31;20.63;;;11.43;;
76417;SDS011;65250;47.602;19.002;2022-12-07T08:41:58;19.85;;;11.45;;
76417;SDS011;65250;47.602;19.002;2022-12-07T08:44:25;21.87;;;10.53;;
76417;SDS011;65250;47.602;19.002;2022-12-07T08:46:53;22.38;;;11.02;;
76417;SDS011;65250;47.602;19.002;2022-12-07T08:49:26;19.00;;;10.63;;
76417;SDS011;65250;47.602;19.002;2022-12-07T08:51:55;19.35;;;10.55;;
76417;SDS011;65250;47.602;19.002;2022-12-07T08:54:22;24.40;;;10.95;;
76417;SDS011;65250;47.602;19.002;2022-12-07T08:56:54;18.33;;;10.67;;
76417;SDS011;65250;47.602;19.002;2022-12-07T08:59:25;19.75;;;9.95;;
76417;SDS011;65250;47.602;19.002;2022-12-07T09:01:53;16.02;;;9.27;;
76417;SDS011;65250;47.602;19.002;2022-12-07T09:04:21;21.50;;;8.90;;
76417;SDS011;65250;47.602;19.002;2022-12-07T09:06:48;15.38;;;8.30;;
76417;SDS011;65250;47.602;19.002;2022-12-07T09:09:15;12.90;;;8.10;;
76417;SDS011;65250;47.602;19.002;2022-12-07T09:11:42;13.32;;;7.65;;
76417;SDS011;65250;47.602;19.002;2022-12-07T09:14:11;11.85;;;8.23;;
76417;SDS011;65250;47.602;19.002;2022-12-07T09:16:38;13.07;;;8.10;;
76417;SDS011;65250;47.602;19.002;2022-12-07T09:19:07;10.38;;;7.07;;
76417;SDS011;65250;47.602;19.002;2022-12-07T09:21:34;10.60;;;6.93;;
76417;SDS011;65250;47.602;19.002;2022-12-07T09:24:01;12.63;;;7.15;;
76417;SDS011;65250;47.602;19.002;2022-12-07T09:26:28;13.75;;;7.35;;
76417;SDS011;65250;47.602;19.002;2022-12-07T09:28:55;11.70;;;6.18;;
76417;SDS011;65250;47.602;19.002;2022-12-07T09:31:22;11.60;;;6.75;;
76417;SDS011;65250;47.602;19.002;2022-12-07T09:33:55;8.17;;;6.10;;
76417;SDS011;65250;47.602;19.002;2022-12-07T09:36:22;10.43;;;6.28;;
76417;SDS011;65250;47.602;19.002;2022-12-07T09:41:45;8.63;;;6.00;;
76417;SDS011;65250;47.602;19.002;2022-12-07T09:44:13;8.52;;;6.50;;
76417;SDS011;65250;47.602;19.002;2022-12-07T09:46:42;8.73;;;5.50;;
76417;SDS011;65250;47.602;19.002;2022-12-07T09:49:14;7.32;;;5.25;;
76417;SDS011;65250;47.602;19.002;2022-12-07T09:51:43;6.15;;;5.10;;
76417;SDS011;65250;47.602;19.002;2022-12-07T09:54:14;8.18;;;5.45;;
76417;SDS011;65250;47.602;19.002;2022-12-07T09:56:43;12.73;;;7.20;;
76417;SDS011;65250;47.602;19.002;2022-12-07T09:59:12;12.43;;;6.43;;
76417;SDS011;65250;47.602;19.002;2022-12-07T10:01:40;9.32;;;5.63;;
76417;SDS011;65250;47.602;19.002;2022-12-07T10:04:12;8.10;;;5.60;;
76417;SDS011;65250;47.602;19.002;2022-12-07T10:06:43;6.97;;;4.88;;
76417;SDS011;65250;47.602;19.002;2022-12-07T10:09:11;8.88;;;4.72;;
76417;SDS011;65250;47.602;19.002;2022-12-07T10:12:01;8.87;;;5.23;;
76417;SDS011;65250;47.602;19.002;2022-12-07T10:14:30;10.18;;;5.38;;
76417;SDS011;65250;47.602;19.002;2022-12-07T10:17:31;8.48;;;5.32;;
76417;SDS011;65250;47.602;19.002;2022-12-07T10:20:15;11.55;;;6.40;;
76417;SDS011;65250;47.602;19.002;2022-12-07T10:22:56;7.25;;;5.20;;
76417;SDS011;65250;47.602;19.002;2022-12-07T10:25:26;12.73;;;7.47;;
76417;SDS011;65250;47.602;19.002;2022-12-07T10:28:00;12.10;;;6.43;;
76417;SDS011;65250;47.602;19.002;2022-12-07T10:30:30;12.60;;;6.38;;
76417;SDS011;65250;47.602;19.002;2022-12-07T10:32:59;11.68;;;6.78;;
76417;SDS011;65250;47.602;19.002;2022-12-07T10:37:57;9.80;;;6.67;;
76417;SDS011;65250;47.602;19.002;2022-12-07T10:40:30;9.38;;;6.25;;
76417;SDS011;65250;47.602;19.002;2022-12-07T10:43:02;10.02;;;6.30;;
76417;SDS011;65250;47.602;19.002;2022-12-07T10:45:30;11.10;;;6.40;;
76417;SDS011;65250;47.602;19.002;2022-12-07T10:48:08;13.50;;;6.38;;
76417;SDS011;65250;47.602;19.002;2022-12-07T10:53:24;11.27;;;6.18;;
76417;SDS011;65250;47.602;19.002;2022-12-07T10:56:07;26.15;;;7.10;;
76417;SDS011;65250;47.602;19.002;2022-12-07T11:04:18;6.87;;;5.63;;
76417;SDS011;65250;47.602;19.002;2022-12-07T11:15:26;13.75;;;6.72;;
76417;SDS011;65250;47.602;19.002;2022-12-07T11:18:03;8.33;;;6.23;;
76417;SDS011;65250;47.602;19.002;2022-12-07T11:23:12;10.52;;;6.47;;
76417;SDS011;65250;47.602;19.002;2022-12-07T11:25:48;8.73;;;5.55;;
76417;SDS011;65250;47.602;19.002;2022-12-07T11:28:31;12.98;;;6.82;;
76417;SDS011;65250;47.602;19.002;2022-12-07T11:36:59;8.07;;;5.65;;
76417;SDS011;65250;47.602;19.002;2022-12-07T11:39:35;9.32;;;6.30;;
76417;SDS011;65250;47.602;19.002;2022-12-07T11:42:14;9.18;;;5.65;;
76417;SDS011;65250;47.602;19.002;2022-12-07T11:47:34;7.63;;;5.25;;
76417;SDS011;65250;47.602;19.002;2022-12-07T11:50:30;8.30;;;6.25;;
76417;SDS011;65250;47.602;19.002;2022-12-07T11:52:58;7.35;;;5.47;;
76417;SDS011;65250;47.602;19.002;2022-12-07T11:55:30;7.43;;;5.00;;
76417;SDS011;65250;47.602;19.002;2022-12-07T11:58:15;7.43;;;5.20;;
76417;SDS011;65250;47.602;19.002;2022-12-07T12:00:48;7.68;;;5.15;;
76417;SDS011;65250;47.602;19.002;2022-12-07T12:03:20;8.63;;;5.53;;
76417;SDS011;65250;47.602;19.002;2022-12-07T12:05:56;10.55;;;5.93;;
76417;SDS011;65250;47.602;19.002;2022-12-07T12:08:27;9.50;;;5.75;;
76417;SDS011;65250;47.602;19.002;2022-12-07T12:19:42;9.77;;;5.95;;
76417;SDS011;65250;47.602;19.002;2022-12-07T12:24:43;7.97;;;5.77;;
76417;SDS011;65250;47.602;19.002;2022-12-07T12:27:23;8.18;;;5.63;;
76417;SDS011;65250;47.602;19.002;2022-12-07T12:29:53;8.85;;;5.78;;
76417;SDS011;65250;47.602;19.002;2022-12-07T12:32:22;8.70;;;5.65;;
76417;SDS011;65250;47.602;19.002;2022-12-07T12:37:53;7.57;;;5.27;;
76417;SDS011;65250;47.602;19.002;2022-12-07T12:42:56;7.63;;;5.15;;
76417;SDS011;65250;47.602;19.002;2022-12-07T12:45:29;6.97;;;5.10;;
76417;SDS011;65250;47.602;19.002;2022-12-07T12:53:01;9.40;;;5.45;;
76417;SDS011;65250;47.602;19.002;2022-12-07T13:00:48;7.88;;;5.53;;
76417;SDS011;65250;47.602;19.002;2022-12-07T13:03:35;7.23;;;5.50;;
76417;SDS011;65250;47.602;19.002;2022-12-07T13:08:46;8.57;;;5.95;;
76417;SDS011;65250;47.602;19.002;2022-12-07T13:11:47;7.78;;;5.35;;
76417;SDS011;65250;47.602;19.002;2022-12-07T13:17:03;10.60;;;5.90;;
76417;SDS011;65250;47.602;19.002;2022-12-07T13:25:02;8.30;;;5.95;;
76417;SDS011;65250;47.602;19.002;2022-12-07T13:27:32;8.32;;;5.53;;
76417;SDS011;65250;47.602;19.002;2022-12-07T13:29:59;9.90;;;4.70;;
76417;SDS011;65250;47.602;19.002;2022-12-07T13:32:28;6.82;;;4.68;;
76417;SDS011;65250;47.602;19.002;2022-12-07T13:34:56;7.80;;;5.78;;
76417;SDS011;65250;47.602;19.002;2022-12-07T13:37:26;6.72;;;4.70;;
76417;SDS011;65250;47.602;19.002;2022-12-07T13:40:19;5.55;;;4.03;;
76417;SDS011;65250;47.602;19.002;2022-12-07T13:42:47;4.63;;;3.30;;
76417;SDS011;65250;47.602;19.002;2022-12-07T13:45:20;5.35;;;3.75;;
76417;SDS011;65250;47.602;19.002;2022-12-07T13:47:51;6.30;;;4.00;;
76417;SDS011;65250;47.602;19.002;2022-12-07T13:52:58;6.75;;;3.72;;
76417;SDS011;65250;47.602;19.002;2022-12-07T13:55:26;4.93;;;3.77;;
76417;SDS011;65250;47.602;19.002;2022-12-07T13:57:55;5.40;;;3.53;;
76417;SDS011;65250;47.602;19.002;2022-12-07T14:00:26;6.78;;;4.15;;
76417;SDS011;65250;47.602;19.002;2022-12-07T14:02:59;6.03;;;4.30;;
76417;SDS011;65250;47.602;19.002;2022-12-07T14:05:30;7.10;;;3.92;;
76417;SDS011;65250;47.602;19.002;2022-12-07T14:08:03;8.10;;;3.70;;
76417;SDS011;65250;47.602;19.002;2022-12-07T14:15:54;7.03;;;4.47;;
76417;SDS011;65250;47.602;19.002;2022-12-07T14:18:27;9.23;;;5.18;;
76417;SDS011;65250;47.602;19.002;2022-12-07T14:21:03;15.10;;;7.07;;
76417;SDS011;65250;47.602;19.002;2022-12-07T14:23:36;12.85;;;6.55;;
76417;SDS011;65250;47.602;19.002;2022-12-07T14:26:13;11.98;;;5.45;;
76417;SDS011;65250;47.602;19.002;2022-12-07T14:28:42;8.63;;;4.97;;
76417;SDS011;65250;47.602;19.002;2022-12-07T14:33:50;9.00;;;5.10;;
76417;SDS011;65250;47.602;19.002;2022-12-07T14:36:19;7.60;;;5.07;;
76417;SDS011;65250;47.602;19.002;2022-12-07T14:38:46;10.25;;;5.80;;
76417;SDS011;65250;47.602;19.002;2022-12-07T14:41:14;8.10;;;5.13;;
76417;SDS011;65250;47.602;19.002;2022-12-07T14:44:02;11.32;;;6.43;;
76417;SDS011;65250;47.602;19.002;2022-12-07T14:46:49;10.77;;;6.20;;
76417;SDS011;65250;47.602;19.002;2022-12-07T14:49:36;11.68;;;6.35;;
76417;SDS011;65250;47.602;19.002;2022-12-07T14:52:04;12.23;;;6.60;;
76417;SDS011;65250;47.602;19.002;2022-12-07T14:54:52;10.05;;;6.72;;
76417;SDS011;65250;47.602;19.002;2022-12-07T14:57:20;14.82;;;8.13;;
76417;SDS011;65250;47.602;19.002;2022-12-07T14:59:47;11.13;;;7.10;;
76417;SDS011;65250;47.602;19.002;2022-12-07T15:02:16;16.60;;;7.47;;
76417;SDS011;65250;47.602;19.002;2022-12-07T15:04:43;14.43;;;7.60;;
76417;SDS011;65250;47.602;19.002;2022-12-07T15:07:14;11.48;;;6.45;;
76417;SDS011;65250;47.602;19.002;2022-12-07T15:09:46;9.82;;;5.25;;
76417;SDS011;65250;47.602;19.002;2022-12-07T15:12:14;10.47;;;5.40;;
76417;SDS011;65250;47.602;19.002;2022-12-07T15:14:41;11.93;;;6.70;;
76417;SDS011;65250;47.602;19.002;2022-12-07T15:17:09;16.08;;;7.05;;
76417;SDS011;65250;47.602;19.002;2022-12-07T15:19:53;12.73;;;7.18;;
76417;SDS011;65250;47.602;19.002;2022-12-07T15:22:21;13.20;;;6.97;;
76417;SDS011;65250;47.602;19.002;2022-12-07T15:24:48;14.57;;;7.40;;
76417;SDS011;65250;47.602;19.002;2022-12-07T15:27:15;11.15;;;6.00;;
76417;SDS011;65250;47.602;19.002;2022-12-07T15:29:43;11.95;;;6.05;;
76417;SDS011;65250;47.602;19.002;2022-12-07T15:32:10;13.50;;;6.90;;
76417;SDS011;65250;47.602;19.002;2022-12-07T15:34:38;15.43;;;7.32;;
76417;SDS011;65250;47.602;19.002;2022-12-07T15:37:06;13.63;;;6.97;;
76417;SDS011;65250;47.602;19.002;2022-12-07T15:39:35;14.88;;;7.35;;
76417;SDS011;65250;47.602;19.002;2022-12-07T15:42:03;12.30;;;7.00;;
76417;SDS011;65250;47.602;19.002;2022-12-07T15:44:31;13.52;;;6.93;;
76417;SDS011;65250;47.602;19.002;2022-12-07T15:47:17;11.65;;;7.30;;
76417;SDS011;65250;47.602;19.002;2022-12-07T15:49:44;15.80;;;8.30;;
76417;SDS011;65250;47.602;19.002;2022-12-07T15:52:12;14.05;;;7.60;;
76417;SDS011;65250;47.602;19.002;2022-12-07T15:54:39;15.02;;;7.95;;
76417;SDS011;65250;47.602;19.002;2022-12-07T15:57:07;19.90;;;7.82;;
76417;SDS011;65250;47.602;19.002;2022-12-07T15:59:34;18.45;;;8.45;;
76417;SDS011;65250;47.602;19.002;2022-12-07T16:02:01;18.07;;;7.87;;
76417;SDS011;65250;47.602;19.002;2022-12-07T16:04:28;18.55;;;8.35;;
76417;SDS011;65250;47.602;19.002;2022-12-07T16:06:56;24.17;;;8.93;;
76417;SDS011;65250;47.602;19.002;2022-12-07T16:09:23;20.08;;;9.98;;
76417;SDS011;65250;47.602;19.002;2022-12-07T16:11:50;29.42;;;11.75;;
76417;SDS011;65250;47.602;19.002;2022-12-07T16:14:18;26.97;;;11.43;;
76417;SDS011;65250;47.602;19.002;2022-12-07T16:16:47;27.35;;;12.02;;
76417;SDS011;65250;47.602;19.002;2022-12-07T16:19:14;26.50;;;11.13;;
76417;SDS011;65250;47.602;19.002;2022-12-07T16:21:41;24.85;;;11.27;;
76417;SDS011;65250;47.602;19.002;2022-12-07T16:24:09;23.90;;;11.02;;
76417;SDS011;65250;47.602;19.002;2022-12-07T16:26:37;23.37;;;9.73;;
76417;SDS011;65250;47.602;19.002;2022-12-07T16:29:04;27.75;;;11.27;;
76417;SDS011;65250;47.602;19.002;2022-12-07T16:31:32;23.75;;;10.98;;
76417;SDS011;65250;47.602;19.002;2022-12-07T16:34:00;23.17;;;9.95;;
76417;SDS011;65250;47.602;19.002;2022-12-07T16:36:27;28.25;;;12.43;;
76417;SDS011;65250;47.602;19.002;2022-12-07T16:39:15;30.20;;;11.97;;
76417;SDS011;65250;47.602;19.002;2022-12-07T16:41:42;29.45;;;12.80;;
76417;SDS011;65250;47.602;19.002;2022-12-07T16:44:10;31.02;;;13.35;;
76417;SDS011;65250;47.602;19.002;2022-12-07T16:46:39;26.65;;;12.52;;